Kashima Maru No.7 — JJGM — position and weather

sailwx.info

Track history (hours):
 
Tides and Currents Weather Stations Pressure Air Temp Water Temp Dewpoint Dewpoint Depression Visibility Wind Speed Wind Dir Waves Ship Positions

Kashima Maru No.7

Last reported at 2018-Feb-19 14:24 UTC. Time now 2018-Feb-20 17:25 UTC.
Position N 34°56' E 140°08'.

Length 72 m; draft 4.4 m.

Type: Tanker. MMSI: 432480000.

Date/timePositionNaut miles runAvg speedWind from/ knotsBaromVisibWave heightAir tempDewpointWater temp
2018-Feb-19 14:24N 34°56' E 140°08'3013.8
2018-Feb-19 12:14N 34°43' E 139°36'613.6
2018-Feb-19 11:47N 34°40' E 139°29'512.8
2018-Feb-19 11:25N 34°38' E 139°24'512.5
2018-Feb-19 11:00N 34°37' E 139°18'612.6
2018-Feb-19 10:30N 34°35' E 139°10'812.4
2018-Feb-19 09:51N 34°33' E 139°01'412.2
2018-Feb-19 09:30N 34°33' E 138°56'712.7
2018-Feb-19 08:55N 34°32' E 138°47'712.5
2018-Feb-19 08:24N 34°32' E 138°39'512.6
2018-Feb-19 08:00N 34°32' E 138°33'812.6
2018-Feb-19 07:22N 34°31' E 138°23'712.8
2018-Feb-19 06:48N 34°30' E 138°14'16410.4
2018-Feb-18 15:06N 33°51' E 135°02'113.0
2018-Feb-18 15:00N 33°52' E 135°01'712.4
2018-Feb-18 14:27N 33°58' E 134°58'512.4
2018-Feb-18 14:00N 34°04' E 134°58'612.4
2018-Feb-18 13:30N 34°10' E 134°58'612.0
2018-Feb-18 13:00N 34°16' E 134°58'611.3
2018-Feb-18 12:30N 34°21' E 135°00'611.8
2018-Feb-18 12:00N 34°25' E 135°05'612.2
2018-Feb-18 11:30N 34°29' E 135°12'612.0
2018-Feb-18 11:01N 34°32' E 135°18'611.3
2018-Feb-18 10:30N 34°33' E 135°24'1 2.5
2018-Feb-18 10:00N 34°32' E 135°25'0 0.0
2018-Feb-18 09:30N 34°32' E 135°25'0 0.0
2018-Feb-18 09:00N 34°32' E 135°25'0 0.0
2018-Feb-18 08:30N 34°32' E 135°25'0 0.0
2018-Feb-18 08:00N 34°32' E 135°25'0 0.0
2018-Feb-18 07:29N 34°32' E 135°25'0 0.0
2018-Feb-18 07:00N 34°32' E 135°25'0 0.0
2018-Feb-18 06:29N 34°32' E 135°25'0 0.0
2018-Feb-18 06:00N 34°32' E 135°25'0 0.2
2018-Feb-18 05:30N 34°32' E 135°25'1 1.7
2018-Feb-18 05:00N 34°33' E 135°25'1 2.6
2018-Feb-18 04:30N 34°34' E 135°23'0 0.0
2018-Feb-18 04:00N 34°34' E 135°23'0 0.0
2018-Feb-18 03:30N 34°34' E 135°23'0 0.0
2018-Feb-18 03:00N 34°34' E 135°23'0 0.0
2018-Feb-18 02:30N 34°34' E 135°23'0 0.0
2018-Feb-18 02:00N 34°34' E 135°23'0 0.0
2018-Feb-18 01:30N 34°34' E 135°23'0 0.0
2018-Feb-18 01:00N 34°34' E 135°23'0 0.0
2018-Feb-18 00:30N 34°34' E 135°23'0 0.0
2018-Feb-18 00:00N 34°34' E 135°23'0 0.0
2018-Feb-17 23:30N 34°34' E 135°23'0 0.1
2018-Feb-17 23:00N 34°34' E 135°23'0 0.1
2018-Feb-17 22:30N 34°34' E 135°23'0 0.1
2018-Feb-17 22:00N 34°34' E 135°23'0 0.0
2018-Feb-17 21:29N 34°34' E 135°23'0 0.0
2018-Feb-17 21:00N 34°34' E 135°23'0 0.0
2018-Feb-17 20:29N 34°34' E 135°23'1 1.7
2018-Feb-17 20:00N 34°34' E 135°22'612.1
2018-Feb-17 19:30N 34°31' E 135°16'612.3
2018-Feb-17 19:00N 34°27' E 135°10'611.9
2018-Feb-17 18:30N 34°24' E 135°04'611.6
2018-Feb-17 18:00N 34°19' E 135°00'510.0
2018-Feb-17 17:30N 34°14' E 134°60'611.5
2018-Feb-17 17:00N 34°08' E 134°60'611.9
2018-Feb-17 16:30N 34°02' E 135°00'611.6
2018-Feb-17 16:00N 33°56' E 134°60'510.4
2018-Feb-17 15:30N 33°51' E 135°02'18010.0
2018-Feb-16 21:29N 34°32' E 138°34'611.0
2018-Feb-16 20:56N 34°32' E 138°41'810.7
2018-Feb-16 20:14N 34°33' E 138°50'310.5
2018-Feb-16 20:00N 34°33' E 138°53'511.2
2018-Feb-16 19:30N 34°33' E 138°60'611.4
2018-Feb-16 18:59N 34°35' E 139°07'710.9
2018-Feb-16 18:22N 34°36' E 139°14'510.9
2018-Feb-16 17:54N 34°38' E 139°21'511.0
2018-Feb-16 17:27N 34°39' E 139°26'29 1.0
2018-Feb-15 11:26N 35°04' E 139°44'512.3
2018-Feb-15 11:00N 35°10' E 139°45'612.0
2018-Feb-15 10:29N 35°16' E 139°46'612.0
2018-Feb-15 10:01N 35°21' E 139°42'5 9.3
2018-Feb-15 09:31N 35°25' E 139°44'612.6
2018-Feb-15 09:00N 35°29' E 139°50'712.4
2018-Feb-15 08:29N 35°31' E 139°58'4 8.1
2018-Feb-15 07:59N 35°31' E 140°03'0 0.2
2018-Feb-15 07:26N 35°31' E 140°03'0 0.0
2018-Feb-15 06:10N 35°31' E 140°03'0 0.0
2018-Feb-15 05:58N 35°31' E 140°03'0 0.0
2018-Feb-15 05:28N 35°31' E 140°03'0 0.1
2018-Feb-15 04:29N 35°31' E 140°02'1 2.6
2018-Feb-15 03:55N 35°32' E 140°01'1 0.8
2018-Feb-15 02:55N 35°31' E 140°01'0 0.0
2018-Feb-15 02:28N 35°31' E 140°01'0 0.0
2018-Feb-15 01:58N 35°31' E 140°01'0 0.1
2018-Feb-15 01:28N 35°31' E 140°01'0 0.1
2018-Feb-15 00:58N 35°31' E 140°01'0 0.1
2018-Feb-15 00:28N 35°31' E 140°01'0 0.0
2018-Feb-14 23:58N 35°31' E 140°01'0 0.0
2018-Feb-14 23:16N 35°31' E 140°01'0 0.2
2018-Feb-14 22:58N 35°31' E 140°01'0 0.1
2018-Feb-14 22:25N 35°31' E 140°01'0 0.1
2018-Feb-14 21:58N 35°31' E 140°01'0 0.0
2018-Feb-14 21:30N 35°31' E 140°01'0 0.3
2018-Feb-14 20:59N 35°31' E 140°01'3 6.9
2018-Feb-14 20:30N 35°30' E 139°57'612.5
2018-Feb-14 20:01N 35°28' E 139°50'612.5
2018-Feb-14 19:30N 35°23' E 139°46'610.9
2018-Feb-14 19:00N 35°17' E 139°46'611.9
2018-Feb-14 18:30N 35°11' E 139°47'611.8
2018-Feb-14 18:00N 35°05' E 139°46'611.9
2018-Feb-14 17:28N 34°59' E 139°44'6 8.0
2018-Feb-14 16:40N 34°54' E 139°47'16 6.3
2018-Feb-14 14:06N 34°59' E 140°06'  
2018-Feb-12 09:37N 34°56' E 140°08'3712.5
2018-Feb-12 06:39N 34°39' E 139°28'614.0
2018-Feb-12 06:14N 34°38' E 139°21'413.9
2018-Feb-12 05:57N 34°37' E 139°17'713.5
2018-Feb-12 05:26N 34°35' E 139°08'713.1
2018-Feb-12 04:56N 34°33' E 139°01'512.7
2018-Feb-12 04:30N 34°33' E 138°54'712.7
2018-Feb-12 03:56N 34°32' E 138°45'712.5
2018-Feb-12 03:23N 34°32' E 138°37'1012.4
2018-Feb-12 02:36N 34°31' E 138°25'512.3
2018-Feb-12 02:13N 34°31' E 138°19'312.5
2018-Feb-12 02:00N 34°30' E 138°16'31911.0
2018-Feb-10 20:54N 33°16' E 132°02'511.3
2018-Feb-10 20:29N 33°20' E 131°58'611.4
2018-Feb-10 19:58N 33°25' E 131°54'611.7
2018-Feb-10 19:28N 33°30' E 131°51'611.7
2018-Feb-10 18:59N 33°35' E 131°47'611.5
2018-Feb-10 18:30N 33°39' E 131°43'611.4
2018-Feb-10 18:00N 33°42' E 131°37'612.2
2018-Feb-10 17:30N 33°44' E 131°30'612.1
2018-Feb-10 17:00N 33°47' E 131°24'612.2
2018-Feb-10 16:30N 33°49' E 131°17'612.1
2018-Feb-10 16:00N 33°52' E 131°10'612.6
2018-Feb-10 15:30N 33°56' E 131°04'611.5
2018-Feb-10 15:00N 33°58' E 130°58'5 9.7
2018-Feb-10 14:30N 33°56' E 130°53'611.9
2018-Feb-10 14:00N 34°01' E 130°49'612.1
2018-Feb-10 13:30N 34°02' E 130°42'712.8
2018-Feb-10 12:59N 34°02' E 130°34'612.7
2018-Feb-10 12:30N 34°03' E 130°27'612.7
2018-Feb-10 12:00N 34°03' E 130°19'612.8
2018-Feb-10 11:30N 34°03' E 130°12'  
Track history (hours):
 
Tides and Currents Weather Stations Pressure Air Temp Water Temp Dewpoint Dewpoint Depression Visibility Wind Speed Wind Dir Waves Ship Positions

Kashima Maru No.7

Last reported at 2018-Feb-19 14:24 UTC. Time now 2018-Feb-20 17:25 UTC.
Position N 34°56' E 140°08'.

Length 72 m; draft 4.4 m.

Type: Tanker. MMSI: 432480000.

Date/timePositionNaut miles runAvg speedWind from/ knotsBaromVisibWave heightAir tempDewpointWater temp
2018-Feb-19 14:24N 34°56' E 140°08'3013.8
2018-Feb-19 12:14N 34°43' E 139°36'613.6
2018-Feb-19 11:47N 34°40' E 139°29'512.8
2018-Feb-19 11:25N 34°38' E 139°24'512.5
2018-Feb-19 11:00N 34°37' E 139°18'612.6
2018-Feb-19 10:30N 34°35' E 139°10'812.4
2018-Feb-19 09:51N 34°33' E 139°01'412.2
2018-Feb-19 09:30N 34°33' E 138°56'712.7
2018-Feb-19 08:55N 34°32' E 138°47'712.5
2018-Feb-19 08:24N 34°32' E 138°39'512.6
2018-Feb-19 08:00N 34°32' E 138°33'812.6
2018-Feb-19 07:22N 34°31' E 138°23'712.8
2018-Feb-19 06:48N 34°30' E 138°14'16410.4
2018-Feb-18 15:06N 33°51' E 135°02'113.0
2018-Feb-18 15:00N 33°52' E 135°01'712.4
2018-Feb-18 14:27N 33°58' E 134°58'512.4
2018-Feb-18 14:00N 34°04' E 134°58'612.4
2018-Feb-18 13:30N 34°10' E 134°58'612.0
2018-Feb-18 13:00N 34°16' E 134°58'611.3
2018-Feb-18 12:30N 34°21' E 135°00'611.8
2018-Feb-18 12:00N 34°25' E 135°05'612.2
2018-Feb-18 11:30N 34°29' E 135°12'612.0
2018-Feb-18 11:01N 34°32' E 135°18'611.3
2018-Feb-18 10:30N 34°33' E 135°24'1 2.5
2018-Feb-18 10:00N 34°32' E 135°25'0 0.0
2018-Feb-18 09:30N 34°32' E 135°25'0 0.0
2018-Feb-18 09:00N 34°32' E 135°25'0 0.0
2018-Feb-18 08:30N 34°32' E 135°25'0 0.0
2018-Feb-18 08:00N 34°32' E 135°25'0 0.0
2018-Feb-18 07:29N 34°32' E 135°25'0 0.0
2018-Feb-18 07:00N 34°32' E 135°25'0 0.0
2018-Feb-18 06:29N 34°32' E 135°25'0 0.0
2018-Feb-18 06:00N 34°32' E 135°25'0 0.2
2018-Feb-18 05:30N 34°32' E 135°25'1 1.7
2018-Feb-18 05:00N 34°33' E 135°25'1 2.6
2018-Feb-18 04:30N 34°34' E 135°23'0 0.0
2018-Feb-18 04:00N 34°34' E 135°23'0 0.0
2018-Feb-18 03:30N 34°34' E 135°23'0 0.0
2018-Feb-18 03:00N 34°34' E 135°23'0 0.0
2018-Feb-18 02:30N 34°34' E 135°23'0 0.0
2018-Feb-18 02:00N 34°34' E 135°23'0 0.0
2018-Feb-18 01:30N 34°34' E 135°23'0 0.0
2018-Feb-18 01:00N 34°34' E 135°23'0 0.0
2018-Feb-18 00:30N 34°34' E 135°23'0 0.0
2018-Feb-18 00:00N 34°34' E 135°23'0 0.0
2018-Feb-17 23:30N 34°34' E 135°23'0 0.1
2018-Feb-17 23:00N 34°34' E 135°23'0 0.1
2018-Feb-17 22:30N 34°34' E 135°23'0 0.1
2018-Feb-17 22:00N 34°34' E 135°23'0 0.0
2018-Feb-17 21:29N 34°34' E 135°23'0 0.0
2018-Feb-17 21:00N 34°34' E 135°23'0 0.0
2018-Feb-17 20:29N 34°34' E 135°23'1 1.7
2018-Feb-17 20:00N 34°34' E 135°22'612.1
2018-Feb-17 19:30N 34°31' E 135°16'612.3
2018-Feb-17 19:00N 34°27' E 135°10'611.9
2018-Feb-17 18:30N 34°24' E 135°04'611.6
2018-Feb-17 18:00N 34°19' E 135°00'510.0
2018-Feb-17 17:30N 34°14' E 134°60'611.5
2018-Feb-17 17:00N 34°08' E 134°60'611.9
2018-Feb-17 16:30N 34°02' E 135°00'611.6
2018-Feb-17 16:00N 33°56' E 134°60'510.4
2018-Feb-17 15:30N 33°51' E 135°02'18010.0
2018-Feb-16 21:29N 34°32' E 138°34'611.0
2018-Feb-16 20:56N 34°32' E 138°41'810.7
2018-Feb-16 20:14N 34°33' E 138°50'310.5
2018-Feb-16 20:00N 34°33' E 138°53'511.2
2018-Feb-16 19:30N 34°33' E 138°60'611.4
2018-Feb-16 18:59N 34°35' E 139°07'710.9
2018-Feb-16 18:22N 34°36' E 139°14'510.9
2018-Feb-16 17:54N 34°38' E 139°21'511.0
2018-Feb-16 17:27N 34°39' E 139°26'29 1.0
2018-Feb-15 11:26N 35°04' E 139°44'512.3
2018-Feb-15 11:00N 35°10' E 139°45'612.0
2018-Feb-15 10:29N 35°16' E 139°46'612.0
2018-Feb-15 10:01N 35°21' E 139°42'5 9.3
2018-Feb-15 09:31N 35°25' E 139°44'612.6
2018-Feb-15 09:00N 35°29' E 139°50'712.4
2018-Feb-15 08:29N 35°31' E 139°58'4 8.1
2018-Feb-15 07:59N 35°31' E 140°03'0 0.2
2018-Feb-15 07:26N 35°31' E 140°03'0 0.0
2018-Feb-15 06:10N 35°31' E 140°03'0 0.0
2018-Feb-15 05:58N 35°31' E 140°03'0 0.0
2018-Feb-15 05:28N 35°31' E 140°03'0 0.1
2018-Feb-15 04:29N 35°31' E 140°02'1 2.6
2018-Feb-15 03:55N 35°32' E 140°01'1 0.8
2018-Feb-15 02:55N 35°31' E 140°01'0 0.0
2018-Feb-15 02:28N 35°31' E 140°01'0 0.0
2018-Feb-15 01:58N 35°31' E 140°01'0 0.1
2018-Feb-15 01:28N 35°31' E 140°01'0 0.1
2018-Feb-15 00:58N 35°31' E 140°01'0 0.1
2018-Feb-15 00:28N 35°31' E 140°01'0 0.0
2018-Feb-14 23:58N 35°31' E 140°01'0 0.0
2018-Feb-14 23:16N 35°31' E 140°01'0 0.2
2018-Feb-14 22:58N 35°31' E 140°01'0 0.1
2018-Feb-14 22:25N 35°31' E 140°01'0 0.1
2018-Feb-14 21:58N 35°31' E 140°01'0 0.0
2018-Feb-14 21:30N 35°31' E 140°01'0 0.3
2018-Feb-14 20:59N 35°31' E 140°01'3 6.9
2018-Feb-14 20:30N 35°30' E 139°57'612.5
2018-Feb-14 20:01N 35°28' E 139°50'612.5
2018-Feb-14 19:30N 35°23' E 139°46'610.9
2018-Feb-14 19:00N 35°17' E 139°46'611.9
2018-Feb-14 18:30N 35°11' E 139°47'611.8
2018-Feb-14 18:00N 35°05' E 139°46'611.9
2018-Feb-14 17:28N 34°59' E 139°44'6 8.0
2018-Feb-14 16:40N 34°54' E 139°47'16 6.3
2018-Feb-14 14:06N 34°59' E 140°06'  
2018-Feb-12 09:37N 34°56' E 140°08'3712.5
2018-Feb-12 06:39N 34°39' E 139°28'614.0
2018-Feb-12 06:14N 34°38' E 139°21'413.9
2018-Feb-12 05:57N 34°37' E 139°17'713.5
2018-Feb-12 05:26N 34°35' E 139°08'713.1
2018-Feb-12 04:56N 34°33' E 139°01'512.7
2018-Feb-12 04:30N 34°33' E 138°54'712.7
2018-Feb-12 03:56N 34°32' E 138°45'712.5
2018-Feb-12 03:23N 34°32' E 138°37'1012.4
2018-Feb-12 02:36N 34°31' E 138°25'512.3
2018-Feb-12 02:13N 34°31' E 138°19'312.5
2018-Feb-12 02:00N 34°30' E 138°16'31911.0
2018-Feb-10 20:54N 33°16' E 132°02'511.3
2018-Feb-10 20:29N 33°20' E 131°58'611.4
2018-Feb-10 19:58N 33°25' E 131°54'611.7
2018-Feb-10 19:28N 33°30' E 131°51'611.7
2018-Feb-10 18:59N 33°35' E 131°47'611.5
2018-Feb-10 18:30N 33°39' E 131°43'611.4
2018-Feb-10 18:00N 33°42' E 131°37'612.2
2018-Feb-10 17:30N 33°44' E 131°30'612.1
2018-Feb-10 17:00N 33°47' E 131°24'612.2
2018-Feb-10 16:30N 33°49' E 131°17'612.1
2018-Feb-10 16:00N 33°52' E 131°10'612.6
2018-Feb-10 15:30N 33°56' E 131°04'611.5
2018-Feb-10 15:00N 33°58' E 130°58'5 9.7
2018-Feb-10 14:30N 33°56' E 130°53'611.9
2018-Feb-10 14:00N 34°01' E 130°49'612.1
2018-Feb-10 13:30N 34°02' E 130°42'712.8
2018-Feb-10 12:59N 34°02' E 130°34'612.7
2018-Feb-10 12:30N 34°03' E 130°27'612.7
2018-Feb-10 12:00N 34°03' E 130°19'612.8
2018-Feb-10 11:30N 34°03' E 130°12'  

Dump ship's entire track history